Chester, Oklahoma
Current Conditions -  °F | °C
As of 9:15 PM on Saturday 20 Dec 2014 (Local Time) from KWWR Reporting Station
Clear Clear  
Wind Chill: 32°   Ceiling: Unl
Heat Index: 37°   Visibility: 10mi
Dew Point: 34°   Wind: 7mph
Humidity: 87%   Direction: 150°SSE
Pressure: 30.08"   Gusts: NA
Location:  36.22°N, 98.92°W
Report Text: KWWR 210315Z AUTO 15006KT 10SM CLR 03/01 A3008 RMK AO2
Loading
Personal Weather Stations






























Interactive Weather Map New forecast layout! Learn more

10-Day Weather Forecast

Advertisements
Track Severe Weather on mobile